createdAt,value
2019-03-13T00:00:55.325Z,40.50
2019-03-13T00:03:25.077Z,40.40
2019-03-13T00:05:54.695Z,40.30
2019-03-13T00:08:24.423Z,40.40
2019-03-13T00:10:54.060Z,40.40
2019-03-13T00:13:23.706Z,40.50
2019-03-13T00:15:53.345Z,40.40
2019-03-13T00:18:23.055Z,40.40
2019-03-13T00:20:52.703Z,41.00
2019-03-13T00:23:22.355Z,40.50
2019-03-13T00:25:51.972Z,40.50
2019-03-13T00:28:21.677Z,41.20
2019-03-13T00:30:51.352Z,41.00
2019-03-13T00:33:21.009Z,40.80
2019-03-13T00:35:50.719Z,40.50
2019-03-13T00:38:20.434Z,40.60
2019-03-13T00:40:50.086Z,40.70
2019-03-13T00:43:19.748Z,40.70
2019-03-13T00:45:49.416Z,40.70
2019-03-13T00:48:19.185Z,40.50
2019-03-13T00:50:48.858Z,40.70
2019-03-13T00:53:18.518Z,40.70
2019-03-13T00:55:48.155Z,40.80
2019-03-13T00:58:18.942Z,40.70
2019-03-13T01:01:16.771Z,40.70
2019-03-13T01:03:56.988Z,40.90
2019-03-13T01:06:33.589Z,41.00
2019-03-13T01:09:04.805Z,41.00
2019-03-13T01:11:34.458Z,41.00
2019-03-13T01:14:04.083Z,41.10
2019-03-13T01:16:33.773Z,41.30
2019-03-13T01:19:04.541Z,41.30
2019-03-13T01:21:34.209Z,41.30
2019-03-13T01:24:03.833Z,41.30
2019-03-13T01:26:33.489Z,42.10
2019-03-13T01:29:03.161Z,41.50
2019-03-13T01:31:58.314Z,41.40
2019-03-13T01:34:46.456Z,41.50
2019-03-13T01:37:17.213Z,41.40
2019-03-13T01:39:46.860Z,41.50
2019-03-13T01:42:16.548Z,41.60
2019-03-13T01:44:46.209Z,41.60
2019-03-13T01:47:15.883Z,41.70
2019-03-13T01:49:46.040Z,41.60
2019-03-13T01:52:15.675Z,41.60
2019-03-13T01:54:45.328Z,41.70
2019-03-13T01:57:15.019Z,41.80
2019-03-13T01:59:44.705Z,41.70
2019-03-13T02:02:14.412Z,41.80
2019-03-13T02:04:44.062Z,41.80
2019-03-13T02:07:13.767Z,41.80
2019-03-13T02:09:43.413Z,41.70
2019-03-13T02:12:13.049Z,41.90
2019-03-13T02:14:42.679Z,41.80
2019-03-13T02:17:12.392Z,42.10
2019-03-13T02:19:42.046Z,41.90
2019-03-13T02:22:11.684Z,41.90
2019-03-13T02:24:41.503Z,41.90
2019-03-13T02:27:11.210Z,41.90
2019-03-13T02:29:40.840Z,41.90
2019-03-13T02:32:10.497Z,42.00
2019-03-13T02:34:40.135Z,42.00
2019-03-13T02:37:09.881Z,41.90
2019-03-13T02:39:39.554Z,42.10
2019-03-13T02:42:09.196Z,42.00
2019-03-13T02:44:38.871Z,42.10
2019-03-13T02:47:08.616Z,42.10
2019-03-13T02:49:38.258Z,42.10
2019-03-13T02:52:07.913Z,42.00
2019-03-13T02:54:37.576Z,42.10
2019-03-13T02:57:07.286Z,42.30
2019-03-13T02:59:36.999Z,42.10
2019-03-13T03:02:40.711Z,42.10
2019-03-13T03:05:10.397Z,42.10
2019-03-13T03:07:40.089Z,42.20
2019-03-13T03:10:10.753Z,42.20
2019-03-13T03:12:40.396Z,42.20
2019-03-13T03:15:12.614Z,42.20
2019-03-13T03:17:42.316Z,42.20
2019-03-13T03:20:14.001Z,42.30
2019-03-13T03:22:43.665Z,42.20
2019-03-13T03:25:13.933Z,42.20
2019-03-13T03:27:43.598Z,42.20
2019-03-13T03:30:16.433Z,42.30
2019-03-13T03:32:46.109Z,42.30
2019-03-13T03:35:15.902Z,42.20
2019-03-13T03:37:45.624Z,42.20
2019-03-13T03:40:15.876Z,42.20
2019-03-13T03:42:45.515Z,42.20
2019-03-13T03:45:15.163Z,42.30
2019-03-13T03:47:44.873Z,42.30
2019-03-13T03:50:14.552Z,42.20
2019-03-13T03:52:44.216Z,42.20
2019-03-13T03:55:13.845Z,42.20
2019-03-13T03:57:43.601Z,42.30
2019-03-13T04:00:13.314Z,42.30
2019-03-13T04:02:43.038Z,42.20
2019-03-13T04:05:12.724Z,42.30
2019-03-13T04:07:42.449Z,42.40
2019-03-13T04:10:12.131Z,42.30
2019-03-13T04:12:41.771Z,42.30
2019-03-13T04:15:11.434Z,42.40
2019-03-13T04:17:41.077Z,42.30
2019-03-13T04:20:10.785Z,42.40
2019-03-13T04:22:40.436Z,42.50
2019-03-13T04:25:38.549Z,42.60
2019-03-13T04:28:08.629Z,42.50
2019-03-13T04:30:38.271Z,42.50
2019-03-13T04:33:07.904Z,42.60
2019-03-13T04:35:37.555Z,42.70
2019-03-13T04:38:07.212Z,42.70
2019-03-13T04:40:36.870Z,42.60
2019-03-13T04:43:06.512Z,42.80
2019-03-13T04:45:36.143Z,42.70
2019-03-13T04:48:05.880Z,42.90
2019-03-13T04:50:35.511Z,42.90
2019-03-13T04:53:05.149Z,42.80
2019-03-13T04:55:34.787Z,43.00
2019-03-13T04:58:04.567Z,43.00
2019-03-13T05:00:34.244Z,43.00
2019-03-13T05:03:03.956Z,43.00
2019-03-13T05:05:57.830Z,43.00
2019-03-13T05:09:00.032Z,43.50
2019-03-13T05:11:29.721Z,43.00
2019-03-13T05:13:59.488Z,47.20
2019-03-13T05:16:29.116Z,48.90
2019-03-13T05:21:27.852Z,43.60
2019-03-13T05:23:57.523Z,43.60
2019-03-13T05:26:27.182Z,44.00
2019-03-13T05:28:56.938Z,44.20
2019-03-13T05:31:26.676Z,44.10
2019-03-13T05:33:56.463Z,44.00
2019-03-13T05:36:26.175Z,44.30
2019-03-13T05:38:55.863Z,44.50
2019-03-13T05:41:25.550Z,44.80
2019-03-13T05:43:55.224Z,45.40
2019-03-13T05:46:24.912Z,45.70
2019-03-13T05:48:54.646Z,44.50
2019-03-13T05:51:24.339Z,44.50
2019-03-13T05:53:54.004Z,46.00
2019-03-13T05:56:23.680Z,46.40
2019-03-13T05:58:53.383Z,46.20
2019-03-13T06:01:23.139Z,46.10
2019-03-13T06:03:52.837Z,46.10
2019-03-13T06:06:22.548Z,45.90
2019-03-13T06:08:52.323Z,46.40
2019-03-13T06:11:22.279Z,46.50
2019-03-13T06:13:51.962Z,46.60
2019-03-13T06:16:21.696Z,46.80
2019-03-13T06:18:52.905Z,46.10
2019-03-13T06:21:22.952Z,46.20
2019-03-13T06:23:52.674Z,45.20
2019-03-13T06:26:22.445Z,44.80
2019-03-13T06:28:52.196Z,44.90
2019-03-13T06:31:21.900Z,44.50
2019-03-13T06:33:51.696Z,44.20
2019-03-13T06:36:21.370Z,44.60
2019-03-13T06:39:10.111Z,43.90
2019-03-13T06:41:40.061Z,43.80
2019-03-13T06:44:09.777Z,43.80
2019-03-13T06:46:39.673Z,43.60
2019-03-13T06:49:09.438Z,43.40
2019-03-13T06:51:39.328Z,43.30
2019-03-13T06:54:09.109Z,43.40
2019-03-13T06:56:38.950Z,43.30
2019-03-13T06:59:22.675Z,43.10
2019-03-13T07:02:17.256Z,43.20
2019-03-13T07:05:18.167Z,43.20
2019-03-13T07:08:05.753Z,43.20
2019-03-13T07:10:57.508Z,43.10
2019-03-13T07:13:42.604Z,43.00
2019-03-13T07:16:22.011Z,43.00
2019-03-13T07:19:10.548Z,43.70
2019-03-13T07:22:02.375Z,43.00
2019-03-13T07:24:50.907Z,43.00
2019-03-13T07:27:37.614Z,42.90
2019-03-13T07:30:22.249Z,42.90
2019-03-13T07:33:13.945Z,42.90
2019-03-13T07:36:17.457Z,42.90
2019-03-13T07:39:08.539Z,43.00
2019-03-13T07:41:56.456Z,42.90
2019-03-13T07:44:42.885Z,43.00
2019-03-13T07:47:37.634Z,43.00
2019-03-13T07:50:17.440Z,43.20
2019-03-13T07:53:03.426Z,43.00
2019-03-13T07:55:44.414Z,43.00
2019-03-13T07:58:19.524Z,43.00
2019-03-13T08:01:16.918Z,43.20
2019-03-13T08:04:05.830Z,43.20
2019-03-13T08:07:03.629Z,43.20
2019-03-13T08:09:51.251Z,43.20
2019-03-13T08:12:42.629Z,43.30
2019-03-13T08:15:32.206Z,43.20
2019-03-13T08:18:09.214Z,43.20
2019-03-13T08:20:56.258Z,43.20
2019-03-13T08:23:47.835Z,43.20
2019-03-13T08:26:24.325Z,43.20
2019-03-13T08:29:06.399Z,43.30
2019-03-13T08:31:42.391Z,43.30
2019-03-13T08:34:29.776Z,43.30
2019-03-13T08:37:18.350Z,43.10
2019-03-13T08:40:15.819Z,43.30
2019-03-13T08:43:22.562Z,43.30
2019-03-13T08:46:02.968Z,43.40
2019-03-13T08:48:43.663Z,43.30
2019-03-13T08:51:24.195Z,43.30
2019-03-13T08:54:15.808Z,43.30
2019-03-13T08:57:07.339Z,43.20
2019-03-13T08:59:55.874Z,43.20
2019-03-13T09:02:47.720Z,43.20
2019-03-13T09:05:38.125Z,43.20
2019-03-13T09:08:19.801Z,43.30
2019-03-13T09:11:07.055Z,43.20
2019-03-13T09:13:56.875Z,43.20
2019-03-13T09:16:45.128Z,43.10
2019-03-13T09:19:27.882Z,43.10
2019-03-13T09:22:28.537Z,43.00
2019-03-13T09:25:28.882Z,43.10
2019-03-13T09:28:09.918Z,43.00
2019-03-13T09:31:01.612Z,43.70
2019-03-13T09:33:52.915Z,43.10
2019-03-13T09:36:33.116Z,43.00
2019-03-13T09:39:23.091Z,43.00
2019-03-13T09:42:11.112Z,43.10
2019-03-13T09:45:02.154Z,43.20
2019-03-13T09:47:41.031Z,43.00
2019-03-13T09:50:22.445Z,43.00
2019-03-13T09:53:10.196Z,43.10
2019-03-13T09:56:10.824Z,43.10
2019-03-13T09:59:08.762Z,43.10
2019-03-13T10:01:57.341Z,43.20
2019-03-13T10:04:42.356Z,43.00
2019-03-13T10:07:33.349Z,43.00
2019-03-13T10:10:21.867Z,43.00
2019-03-13T10:13:08.471Z,42.90
2019-03-13T10:15:48.391Z,43.00
2019-03-13T10:18:31.841Z,43.10
2019-03-13T10:21:20.352Z,42.90
2019-03-13T10:24:21.191Z,42.90
2019-03-13T10:27:15.542Z,42.90
2019-03-13T10:29:53.948Z,42.90
2019-03-13T10:32:51.711Z,42.90
2019-03-13T10:35:43.062Z,43.00
2019-03-13T10:38:43.821Z,43.00
2019-03-13T10:41:19.831Z,42.90
2019-03-13T10:44:24.650Z,43.00
2019-03-13T10:47:04.988Z,42.90
2019-03-13T10:50:11.832Z,42.90
2019-03-13T10:53:00.354Z,43.00
2019-03-13T10:55:57.780Z,42.80
2019-03-13T10:58:53.583Z,42.90
2019-03-13T11:01:39.407Z,42.80
2019-03-13T11:04:22.223Z,42.70
2019-03-13T11:07:19.887Z,42.80
2019-03-13T11:09:57.883Z,42.70
2019-03-13T11:12:42.159Z,42.70
2019-03-13T11:15:29.608Z,42.70
2019-03-13T11:18:18.187Z,42.60
2019-03-13T11:21:07.097Z,42.70
2019-03-13T11:24:00.870Z,42.70
2019-03-13T11:26:48.778Z,42.60
2019-03-13T11:29:36.952Z,42.50
2019-03-13T11:32:37.572Z,42.50
2019-03-13T11:35:35.443Z,42.90
2019-03-13T11:38:22.536Z,42.60
2019-03-13T11:41:23.396Z,42.60
2019-03-13T11:44:12.200Z,42.70
2019-03-13T11:46:56.288Z,42.60
2019-03-13T11:49:40.427Z,42.70
2019-03-13T11:52:27.877Z,42.60
2019-03-13T11:55:05.741Z,42.70
2019-03-13T11:57:57.241Z,42.80
2019-03-13T12:00:46.298Z,42.70
2019-03-13T12:03:37.598Z,42.60
2019-03-13T12:06:38.605Z,42.80
2019-03-13T12:09:21.999Z,43.20
2019-03-13T12:12:22.717Z,42.60
2019-03-13T12:15:11.258Z,42.70
2019-03-13T12:18:12.287Z,42.70
2019-03-13T12:21:03.925Z,42.60
2019-03-13T12:23:51.372Z,42.60
2019-03-13T12:26:55.334Z,42.60
2019-03-13T12:29:43.851Z,42.80
2019-03-13T12:32:35.792Z,42.70
2019-03-13T12:35:33.687Z,42.80
2019-03-13T12:38:40.798Z,42.70
2019-03-13T12:41:28.743Z,42.60
2019-03-13T12:44:17.448Z,42.70
2019-03-13T12:46:57.056Z,42.70
2019-03-13T12:49:43.040Z,42.70
2019-03-13T12:52:30.677Z,41.90
2019-03-13T12:55:18.816Z,42.60
2019-03-13T12:58:07.276Z,42.70
2019-03-13T13:00:55.812Z,42.70
2019-03-13T13:03:56.939Z,42.80
2019-03-13T13:06:54.422Z,42.80
2019-03-13T13:09:49.073Z,42.70
2019-03-13T13:12:30.054Z,42.80
2019-03-13T13:15:19.434Z,42.60
2019-03-13T13:18:08.073Z,42.70
2019-03-13T13:20:37.752Z,42.60
2019-03-13T13:23:07.536Z,42.50
2019-03-13T13:25:37.463Z,42.60
2019-03-13T13:28:07.235Z,42.60
2019-03-13T13:30:36.919Z,42.60
2019-03-13T13:33:06.644Z,42.60
2019-03-13T13:35:36.383Z,42.50
2019-03-13T13:38:06.169Z,42.60
2019-03-13T13:40:35.916Z,42.70
2019-03-13T13:43:05.733Z,42.60
2019-03-13T13:46:08.129Z,42.50
2019-03-13T13:48:37.873Z,42.60
2019-03-13T13:51:07.515Z,42.90
2019-03-13T13:53:37.208Z,42.60
2019-03-13T13:56:06.927Z,42.90
2019-03-13T13:58:36.763Z,42.70
2019-03-13T14:01:06.471Z,42.80
2019-03-13T14:03:36.219Z,42.90
2019-03-13T14:06:05.951Z,42.80
2019-03-13T14:08:35.632Z,42.80
2019-03-13T14:11:05.419Z,42.90
2019-03-13T14:13:41.118Z,43.00
2019-03-13T14:16:10.807Z,43.00
2019-03-13T14:18:40.528Z,43.00
2019-03-13T14:21:10.270Z,43.00
2019-03-13T14:23:39.992Z,43.20
2019-03-13T14:26:09.720Z,43.10
2019-03-13T14:28:39.527Z,43.50
2019-03-13T14:31:09.293Z,43.30
2019-03-13T14:33:40.151Z,43.40
2019-03-13T14:36:09.824Z,43.20
2019-03-13T14:38:39.575Z,43.30
2019-03-13T14:41:09.346Z,43.40
2019-03-13T14:43:39.381Z,43.30
2019-03-13T14:46:09.157Z,43.20
2019-03-13T14:48:38.962Z,43.20
2019-03-13T14:51:08.649Z,43.20
2019-03-13T14:53:38.351Z,43.10
2019-03-13T14:56:08.067Z,43.20
2019-03-13T14:58:37.885Z,43.20
2019-03-13T15:01:07.612Z,43.40
2019-03-13T15:03:37.301Z,43.30
2019-03-13T15:06:06.996Z,43.40
2019-03-13T15:08:36.787Z,43.30
2019-03-13T15:11:06.446Z,43.20
2019-03-13T15:13:36.214Z,43.20
2019-03-13T15:16:06.530Z,43.30
2019-03-13T15:18:36.226Z,43.10
2019-03-13T15:21:05.899Z,43.30
2019-03-13T15:23:35.643Z,43.20
2019-03-13T15:26:05.556Z,43.30
2019-03-13T15:28:35.269Z,43.40
2019-03-13T15:31:05.081Z,43.30
2019-03-13T15:33:34.778Z,43.40
2019-03-13T15:36:04.575Z,43.40
2019-03-13T15:38:34.365Z,43.40
2019-03-13T15:41:04.064Z,43.50
2019-03-13T15:43:33.940Z,44.10
2019-03-13T15:46:03.627Z,43.40
2019-03-13T15:48:33.381Z,43.40
2019-03-13T15:51:03.048Z,43.40
2019-03-13T15:53:32.745Z,43.50
2019-03-13T15:56:02.416Z,43.60
2019-03-13T15:58:32.218Z,43.70
2019-03-13T16:01:02.027Z,43.60
2019-03-13T16:03:31.695Z,43.50
2019-03-13T16:06:01.412Z,43.70
2019-03-13T16:08:31.175Z,43.60
2019-03-13T16:11:00.932Z,44.20
2019-03-13T16:13:30.579Z,43.70
2019-03-13T16:16:00.304Z,43.80
2019-03-13T16:18:30.003Z,44.00
2019-03-13T16:20:59.668Z,44.40
2019-03-13T16:23:29.364Z,44.60
2019-03-13T16:25:59.105Z,44.70
2019-03-13T16:28:28.905Z,44.90
2019-03-13T16:30:58.664Z,44.90
2019-03-13T16:33:28.406Z,44.70
2019-03-13T16:35:58.182Z,44.70
2019-03-13T16:38:27.963Z,44.90
2019-03-13T16:40:57.878Z,44.80
2019-03-13T16:43:27.623Z,44.70
2019-03-13T16:45:58.971Z,44.70
2019-03-13T16:48:28.827Z,44.70
2019-03-13T16:50:58.511Z,44.90
2019-03-13T16:53:28.234Z,45.00
2019-03-13T16:55:57.922Z,44.90
2019-03-13T16:58:28.634Z,44.90
2019-03-13T17:00:58.320Z,44.80
2019-03-13T17:03:28.020Z,44.80
2019-03-13T17:05:57.782Z,44.90
2019-03-13T17:08:27.657Z,44.90
2019-03-13T17:10:57.523Z,44.70
2019-03-13T17:13:27.258Z,44.70
2019-03-13T17:15:57.069Z,44.70
2019-03-13T17:18:26.940Z,44.70
2019-03-13T17:20:56.663Z,45.20
2019-03-13T17:23:26.405Z,45.40
2019-03-13T17:25:56.095Z,46.30
2019-03-13T17:28:25.839Z,45.70
2019-03-13T17:30:55.582Z,44.80
2019-03-13T17:33:25.300Z,44.80
2019-03-13T17:35:54.932Z,44.70
2019-03-13T17:38:24.726Z,44.70
2019-03-13T17:40:54.434Z,44.80
2019-03-13T17:43:24.176Z,44.80
2019-03-13T17:45:53.948Z,44.90
2019-03-13T17:48:23.757Z,44.80
2019-03-13T17:50:53.476Z,45.30
2019-03-13T17:53:23.123Z,44.70
2019-03-13T17:55:52.787Z,44.70
2019-03-13T17:58:22.844Z,44.20
2019-03-13T18:00:52.959Z,45.10
2019-03-13T18:03:23.498Z,44.60
2019-03-13T18:05:53.207Z,45.20
2019-03-13T18:08:22.992Z,45.70
2019-03-13T18:10:52.720Z,46.10
2019-03-13T18:13:22.566Z,46.10
2019-03-13T18:15:52.421Z,46.10
2019-03-13T18:18:22.232Z,46.70
2019-03-13T18:20:51.896Z,46.70
2019-03-13T18:23:21.674Z,46.80
2019-03-13T18:25:51.459Z,46.80
2019-03-13T18:28:21.199Z,48.10
2019-03-13T18:30:50.942Z,48.60
2019-03-13T18:33:20.667Z,49.70
2019-03-13T18:35:50.344Z,49.70
2019-03-13T18:38:20.122Z,49.50
2019-03-13T18:40:49.850Z,49.90
2019-03-13T18:43:19.605Z,49.40
2019-03-13T18:45:49.455Z,49.70
2019-03-13T18:48:19.255Z,49.10
2019-03-13T18:50:49.012Z,48.80
2019-03-13T18:53:18.742Z,48.60
2019-03-13T18:55:48.542Z,48.60
2019-03-13T18:58:18.324Z,48.80
2019-03-13T19:00:48.063Z,48.90
2019-03-13T19:03:17.791Z,48.00
2019-03-13T19:05:47.494Z,47.80
2019-03-13T19:08:17.266Z,48.30
2019-03-13T19:10:47.002Z,48.20
2019-03-13T19:13:16.720Z,47.70
2019-03-13T19:15:46.484Z,46.40
2019-03-13T19:18:16.284Z,46.80
2019-03-13T19:20:46.036Z,46.70
2019-03-13T19:23:15.823Z,46.70
2019-03-13T19:25:45.563Z,46.60
2019-03-13T19:28:15.440Z,46.50
2019-03-13T19:30:45.149Z,47.10
2019-03-13T19:33:15.021Z,46.40
2019-03-13T19:35:44.738Z,46.30
2019-03-13T19:38:14.951Z,46.70
2019-03-13T19:40:44.646Z,46.00
2019-03-13T19:43:14.344Z,45.90
2019-03-13T19:45:44.122Z,45.90
2019-03-13T19:48:15.023Z,45.80
2019-03-13T19:50:44.799Z,45.70
2019-03-13T19:53:14.488Z,45.70
2019-03-13T19:55:44.220Z,45.60
2019-03-13T19:58:13.999Z,45.50
2019-03-13T20:00:43.713Z,45.50
2019-03-13T20:03:13.423Z,45.40
2019-03-13T20:05:45.889Z,45.40
2019-03-13T20:08:14.630Z,45.30
2019-03-13T20:10:44.307Z,45.20
2019-03-13T20:13:13.997Z,45.20
2019-03-13T20:15:43.691Z,45.10
2019-03-13T20:18:13.434Z,45.00
2019-03-13T20:21:02.291Z,45.00
2019-03-13T20:23:32.168Z,45.00
2019-03-13T20:26:01.883Z,44.50
2019-03-13T20:28:31.718Z,45.40
2019-03-13T20:31:01.443Z,44.90
2019-03-13T20:33:32.888Z,44.60
2019-03-13T20:36:02.695Z,44.60
2019-03-13T20:38:32.416Z,44.50
2019-03-13T20:41:02.155Z,44.40
2019-03-13T20:43:31.836Z,44.40
2019-03-13T20:46:01.550Z,44.50
2019-03-13T20:48:31.352Z,44.40
2019-03-13T20:51:01.072Z,44.50
2019-03-13T20:53:49.927Z,44.50
2019-03-13T20:56:19.617Z,44.20
2019-03-13T20:58:49.284Z,44.40
2019-03-13T21:01:18.971Z,44.30
2019-03-13T21:03:48.645Z,45.00
2019-03-13T21:06:18.283Z,45.60
2019-03-13T21:08:48.020Z,45.00
2019-03-13T21:11:17.672Z,45.00
2019-03-13T21:13:47.314Z,45.30
2019-03-13T21:16:17.023Z,45.20
2019-03-13T21:18:47.784Z,45.60
2019-03-13T21:21:19.050Z,45.40
2019-03-13T21:23:48.740Z,45.40
2019-03-13T21:26:18.423Z,45.50
2019-03-13T21:28:48.441Z,45.50
2019-03-13T21:31:18.122Z,45.30
2019-03-13T21:33:47.860Z,46.10
2019-03-13T21:36:17.571Z,45.10
2019-03-13T21:38:47.303Z,45.20
2019-03-13T21:41:17.930Z,45.70
2019-03-13T21:43:50.799Z,45.50
2019-03-13T21:46:18.949Z,45.60
2019-03-13T21:48:48.749Z,45.40
2019-03-13T21:51:18.493Z,44.60
2019-03-13T21:53:48.921Z,44.90
2019-03-13T21:56:18.597Z,44.60
2019-03-13T21:58:48.344Z,44.40
2019-03-13T22:01:20.112Z,44.70
2019-03-13T22:03:49.291Z,44.20
2019-03-13T22:06:27.991Z,44.10
2019-03-13T22:08:50.271Z,44.10
2019-03-13T22:11:19.916Z,44.10
2019-03-13T22:13:49.568Z,44.00
2019-03-13T22:16:19.259Z,43.90
2019-03-13T22:18:49.025Z,44.00
2019-03-13T22:21:18.667Z,43.80
2019-03-13T22:23:48.307Z,43.80
2019-03-13T22:26:18.371Z,43.60
2019-03-13T22:28:48.075Z,43.80
2019-03-13T22:31:17.768Z,43.60
2019-03-13T22:33:47.419Z,43.50
2019-03-13T22:36:17.065Z,43.50
2019-03-13T22:38:46.797Z,43.40
2019-03-13T22:41:16.448Z,43.50
2019-03-13T22:43:46.092Z,43.40
2019-03-13T22:46:15.803Z,43.30
2019-03-13T22:48:57.418Z,44.00
2019-03-13T22:51:16.855Z,43.30
2019-03-13T22:53:46.482Z,43.30
2019-03-13T22:56:16.664Z,43.30
2019-03-13T22:58:47.419Z,43.30
2019-03-13T23:01:19.265Z,43.10
2019-03-13T23:03:48.998Z,43.30
2019-03-13T23:06:18.702Z,43.10
2019-03-13T23:08:48.480Z,43.20
2019-03-13T23:11:18.121Z,43.20
2019-03-13T23:13:47.785Z,43.10
2019-03-13T23:16:17.437Z,43.10
2019-03-13T23:18:47.180Z,43.30
2019-03-13T23:21:16.841Z,43.10
2019-03-13T23:23:46.490Z,43.20
2019-03-13T23:26:16.144Z,43.20
2019-03-13T23:29:05.294Z,43.20
2019-03-13T23:31:34.995Z,43.30
2019-03-13T23:34:08.704Z,43.20
2019-03-13T23:36:38.361Z,43.20
2019-03-13T23:39:08.095Z,43.10
2019-03-13T23:41:37.748Z,43.20
2019-03-13T23:44:07.389Z,43.10
2019-03-13T23:46:37.035Z,43.10
2019-03-13T23:49:06.891Z,43.10
2019-03-13T23:51:36.568Z,43.10
2019-03-13T23:54:06.229Z,43.20
2019-03-13T23:56:35.861Z,43.10
2019-03-13T23:59:05.571Z,43.10
